sensor_id;sensor_type;location;lat;lon;timestamp;P1;durP1;ratioP1;P2;durP2;ratioP2
60468;SDS011;46316;47.582;10.238;2022-09-13T00:01:08;1.35;;;1.15;;
60468;SDS011;46316;47.582;10.238;2022-09-13T00:03:34;1.20;;;1.10;;
60468;SDS011;46316;47.582;10.238;2022-09-13T00:06:06;1.95;;;1.05;;
60468;SDS011;46316;47.582;10.238;2022-09-13T00:08:37;1.17;;;1.05;;
60468;SDS011;46316;47.582;10.238;2022-09-13T00:11:03;1.20;;;1.10;;
60468;SDS011;46316;47.582;10.238;2022-09-13T00:13:28;1.45;;;1.10;;
60468;SDS011;46316;47.582;10.238;2022-09-13T00:15:54;1.42;;;1.33;;
60468;SDS011;46316;47.582;10.238;2022-09-13T00:18:20;1.13;;;1.02;;
60468;SDS011;46316;47.582;10.238;2022-09-13T00:20:46;1.10;;;0.90;;
60468;SDS011;46316;47.582;10.238;2022-09-13T00:23:12;5.38;;;1.10;;
60468;SDS011;46316;47.582;10.238;2022-09-13T00:25:38;1.10;;;1.00;;
60468;SDS011;46316;47.582;10.238;2022-09-13T00:28:04;1.35;;;1.25;;
60468;SDS011;46316;47.582;10.238;2022-09-13T00:30:30;2.88;;;1.20;;
60468;SDS011;46316;47.582;10.238;2022-09-13T00:32:56;1.17;;;1.02;;
60468;SDS011;46316;47.582;10.238;2022-09-13T00:35:22;1.00;;;1.00;;
60468;SDS011;46316;47.582;10.238;2022-09-13T00:37:48;1.98;;;0.90;;
60468;SDS011;46316;47.582;10.238;2022-09-13T00:40:13;2.05;;;1.30;;
60468;SDS011;46316;47.582;10.238;2022-09-13T00:42:39;1.10;;;1.05;;
60468;SDS011;46316;47.582;10.238;2022-09-13T00:47:40;1.17;;;1.10;;
60468;SDS011;46316;47.582;10.238;2022-09-13T00:52:45;3.50;;;1.02;;
60468;SDS011;46316;47.582;10.238;2022-09-13T00:55:17;2.05;;;1.27;;
60468;SDS011;46316;47.582;10.238;2022-09-13T00:57:51;1.40;;;1.08;;
60468;SDS011;46316;47.582;10.238;2022-09-13T01:00:20;2.28;;;1.10;;
60468;SDS011;46316;47.582;10.238;2022-09-13T01:02:48;4.25;;;1.00;;
60468;SDS011;46316;47.582;10.238;2022-09-13T01:05:19;4.15;;;1.20;;
60468;SDS011;46316;47.582;10.238;2022-09-13T01:07:47;4.18;;;1.60;;
60468;SDS011;46316;47.582;10.238;2022-09-13T01:10:14;1.20;;;1.10;;
60468;SDS011;46316;47.582;10.238;2022-09-13T01:12:47;1.70;;;1.50;;
60468;SDS011;46316;47.582;10.238;2022-09-13T01:15:37;3.75;;;1.10;;
60468;SDS011;46316;47.582;10.238;2022-09-13T01:18:02;1.85;;;1.10;;
60468;SDS011;46316;47.582;10.238;2022-09-13T01:26:11;2.88;;;1.17;;
60468;SDS011;46316;47.582;10.238;2022-09-13T01:35:06;2.40;;;1.17;;
60468;SDS011;46316;47.582;10.238;2022-09-13T01:43:05;3.50;;;1.13;;
60468;SDS011;46316;47.582;10.238;2022-09-13T01:46:05;1.75;;;1.00;;
60468;SDS011;46316;47.582;10.238;2022-09-13T01:51:49;1.85;;;1.05;;
60468;SDS011;46316;47.582;10.238;2022-09-13T01:54:38;1.00;;;0.93;;
60468;SDS011;46316;47.582;10.238;2022-09-13T01:59:55;2.33;;;1.30;;
60468;SDS011;46316;47.582;10.238;2022-09-13T02:02:34;1.13;;;1.02;;
60468;SDS011;46316;47.582;10.238;2022-09-13T02:05:12;1.83;;;0.80;;
60468;SDS011;46316;47.582;10.238;2022-09-13T02:07:56;1.70;;;1.35;;
60468;SDS011;46316;47.582;10.238;2022-09-13T02:10:34;1.00;;;1.00;;
60468;SDS011;46316;47.582;10.238;2022-09-13T02:13:48;1.10;;;1.00;;
60468;SDS011;46316;47.582;10.238;2022-09-13T02:16:28;0.77;;;0.77;;
60468;SDS011;46316;47.582;10.238;2022-09-13T02:19:02;1.40;;;1.10;;
60468;SDS011;46316;47.582;10.238;2022-09-13T02:21:33;1.20;;;1.10;;
60468;SDS011;46316;47.582;10.238;2022-09-13T02:24:10;3.78;;;1.00;;
60468;SDS011;46316;47.582;10.238;2022-09-13T02:26:40;2.03;;;1.08;;
60468;SDS011;46316;47.582;10.238;2022-09-13T02:29:11;1.38;;;0.90;;
60468;SDS011;46316;47.582;10.238;2022-09-13T02:31:43;0.90;;;0.90;;
60468;SDS011;46316;47.582;10.238;2022-09-13T02:34:15;3.90;;;0.90;;
60468;SDS011;46316;47.582;10.238;2022-09-13T02:36:46;2.25;;;0.95;;
60468;SDS011;46316;47.582;10.238;2022-09-13T02:39:15;2.13;;;0.82;;
60468;SDS011;46316;47.582;10.238;2022-09-13T02:41:46;1.58;;;0.90;;
60468;SDS011;46316;47.582;10.238;2022-09-13T02:55:41;1.02;;;0.75;;
60468;SDS011;46316;47.582;10.238;2022-09-13T02:58:25;5.25;;;1.13;;
60468;SDS011;46316;47.582;10.238;2022-09-13T03:01:03;2.03;;;1.00;;
60468;SDS011;46316;47.582;10.238;2022-09-13T03:03:30;1.13;;;1.02;;
60468;SDS011;46316;47.582;10.238;2022-09-13T03:05:56;2.75;;;2.03;;
60468;SDS011;46316;47.582;10.238;2022-09-13T03:08:21;3.63;;;1.20;;
60468;SDS011;46316;47.582;10.238;2022-09-13T03:16:42;1.33;;;1.00;;
60468;SDS011;46316;47.582;10.238;2022-09-13T03:20:07;1.10;;;1.00;;
60468;SDS011;46316;47.582;10.238;2022-09-13T03:30:07;5.20;;;1.20;;
60468;SDS011;46316;47.582;10.238;2022-09-13T03:37:46;1.52;;;1.02;;
60468;SDS011;46316;47.582;10.238;2022-09-13T03:40:35;1.63;;;1.10;;
60468;SDS011;46316;47.582;10.238;2022-09-13T03:45:39;1.75;;;1.05;;
60468;SDS011;46316;47.582;10.238;2022-09-13T03:48:15;0.93;;;0.70;;
60468;SDS011;46316;47.582;10.238;2022-09-13T03:50:42;1.90;;;1.02;;
60468;SDS011;46316;47.582;10.238;2022-09-13T03:53:11;1.25;;;0.93;;
60468;SDS011;46316;47.582;10.238;2022-09-13T03:55:40;1.60;;;1.00;;
60468;SDS011;46316;47.582;10.238;2022-09-13T03:58:11;1.92;;;1.05;;
60468;SDS011;46316;47.582;10.238;2022-09-13T04:00:38;1.73;;;0.90;;
60468;SDS011;46316;47.582;10.238;2022-09-13T04:03:06;1.20;;;1.10;;
60468;SDS011;46316;47.582;10.238;2022-09-13T04:05:32;2.05;;;0.95;;
60468;SDS011;46316;47.582;10.238;2022-09-13T04:07:59;1.13;;;0.73;;
60468;SDS011;46316;47.582;10.238;2022-09-13T04:10:25;0.80;;;0.80;;
60468;SDS011;46316;47.582;10.238;2022-09-13T04:12:52;2.85;;;0.90;;
60468;SDS011;46316;47.582;10.238;2022-09-13T04:15:18;1.45;;;0.85;;
60468;SDS011;46316;47.582;10.238;2022-09-13T04:17:44;1.30;;;0.90;;
60468;SDS011;46316;47.582;10.238;2022-09-13T04:20:10;4.88;;;1.08;;
60468;SDS011;46316;47.582;10.238;2022-09-13T04:22:35;1.80;;;0.88;;
60468;SDS011;46316;47.582;10.238;2022-09-13T04:25:01;2.38;;;0.85;;
60468;SDS011;46316;47.582;10.238;2022-09-13T04:27:27;1.50;;;0.50;;
60468;SDS011;46316;47.582;10.238;2022-09-13T04:29:53;0.80;;;0.80;;
60468;SDS011;46316;47.582;10.238;2022-09-13T04:32:18;3.08;;;0.80;;
60468;SDS011;46316;47.582;10.238;2022-09-13T04:34:45;0.95;;;0.90;;
60468;SDS011;46316;47.582;10.238;2022-09-13T04:37:11;0.75;;;0.75;;
60468;SDS011;46316;47.582;10.238;2022-09-13T04:39:38;0.70;;;0.70;;
60468;SDS011;46316;47.582;10.238;2022-09-13T04:42:04;1.30;;;1.10;;
60468;SDS011;46316;47.582;10.238;2022-09-13T04:44:31;1.08;;;0.90;;
60468;SDS011;46316;47.582;10.238;2022-09-13T04:46:57;2.75;;;0.80;;
60468;SDS011;46316;47.582;10.238;2022-09-13T04:49:24;1.10;;;0.88;;
60468;SDS011;46316;47.582;10.238;2022-09-13T04:51:49;1.23;;;0.70;;
60468;SDS011;46316;47.582;10.238;2022-09-13T04:54:15;0.68;;;0.60;;
60468;SDS011;46316;47.582;10.238;2022-09-13T04:56:41;2.03;;;0.93;;
60468;SDS011;46316;47.582;10.238;2022-09-13T04:59:07;3.25;;;1.00;;
60468;SDS011;46316;47.582;10.238;2022-09-13T05:01:34;0.73;;;0.60;;
60468;SDS011;46316;47.582;10.238;2022-09-13T05:04:02;4.13;;;0.70;;
60468;SDS011;46316;47.582;10.238;2022-09-13T05:06:28;0.57;;;0.57;;
60468;SDS011;46316;47.582;10.238;2022-09-13T05:08:55;1.20;;;1.10;;
60468;SDS011;46316;47.582;10.238;2022-09-13T05:11:21;1.90;;;0.95;;
60468;SDS011;46316;47.582;10.238;2022-09-13T05:13:48;1.17;;;0.82;;
60468;SDS011;46316;47.582;10.238;2022-09-13T05:16:17;2.93;;;1.07;;
60468;SDS011;46316;47.582;10.238;2022-09-13T05:18:42;1.42;;;0.90;;
60468;SDS011;46316;47.582;10.238;2022-09-13T05:21:08;0.90;;;0.73;;
60468;SDS011;46316;47.582;10.238;2022-09-13T05:23:33;1.40;;;1.00;;
60468;SDS011;46316;47.582;10.238;2022-09-13T05:26:00;2.22;;;0.85;;
60468;SDS011;46316;47.582;10.238;2022-09-13T05:28:28;1.00;;;0.85;;
60468;SDS011;46316;47.582;10.238;2022-09-13T05:33:45;3.03;;;0.90;;
60468;SDS011;46316;47.582;10.238;2022-09-13T05:36:12;0.50;;;0.50;;
60468;SDS011;46316;47.582;10.238;2022-09-13T05:38:38;0.70;;;0.70;;
60468;SDS011;46316;47.582;10.238;2022-09-13T05:41:04;1.45;;;0.60;;
60468;SDS011;46316;47.582;10.238;2022-09-13T05:43:31;0.90;;;0.70;;
60468;SDS011;46316;47.582;10.238;2022-09-13T05:48:30;1.20;;;0.55;;
60468;SDS011;46316;47.582;10.238;2022-09-13T05:51:02;0.82;;;0.50;;
60468;SDS011;46316;47.582;10.238;2022-09-13T05:53:33;1.10;;;0.70;;
60468;SDS011;46316;47.582;10.238;2022-09-13T05:55:59;0.63;;;0.63;;
60468;SDS011;46316;47.582;10.238;2022-09-13T05:58:25;1.80;;;0.70;;
60468;SDS011;46316;47.582;10.238;2022-09-13T06:00:56;1.38;;;0.70;;
60468;SDS011;46316;47.582;10.238;2022-09-13T06:03:22;1.00;;;0.60;;
60468;SDS011;46316;47.582;10.238;2022-09-13T06:05:48;0.95;;;0.85;;
60468;SDS011;46316;47.582;10.238;2022-09-13T06:08:15;1.30;;;0.60;;
60468;SDS011;46316;47.582;10.238;2022-09-13T06:10:41;1.88;;;0.75;;
60468;SDS011;46316;47.582;10.238;2022-09-13T06:13:06;0.75;;;0.60;;
60468;SDS011;46316;47.582;10.238;2022-09-13T06:15:32;0.57;;;0.57;;
60468;SDS011;46316;47.582;10.238;2022-09-13T06:17:58;0.73;;;0.52;;
60468;SDS011;46316;47.582;10.238;2022-09-13T06:20:23;2.03;;;0.60;;
60468;SDS011;46316;47.582;10.238;2022-09-13T06:22:49;1.20;;;0.60;;
60468;SDS011;46316;47.582;10.238;2022-09-13T06:25:15;0.52;;;0.52;;
60468;SDS011;46316;47.582;10.238;2022-09-13T06:27:41;1.80;;;0.70;;
60468;SDS011;46316;47.582;10.238;2022-09-13T06:30:08;1.45;;;0.50;;
60468;SDS011;46316;47.582;10.238;2022-09-13T06:32:35;0.75;;;0.50;;
60468;SDS011;46316;47.582;10.238;2022-09-13T06:35:01;0.50;;;0.50;;
60468;SDS011;46316;47.582;10.238;2022-09-13T06:37:27;0.30;;;0.30;;
60468;SDS011;46316;47.582;10.238;2022-09-13T06:39:52;1.30;;;0.60;;
60468;SDS011;46316;47.582;10.238;2022-09-13T06:42:18;0.60;;;0.60;;
60468;SDS011;46316;47.582;10.238;2022-09-13T06:44:43;2.55;;;0.80;;
60468;SDS011;46316;47.582;10.238;2022-09-13T06:47:12;0.45;;;0.43;;
60468;SDS011;46316;47.582;10.238;2022-09-13T06:49:38;0.60;;;0.60;;
60468;SDS011;46316;47.582;10.238;2022-09-13T06:52:04;1.10;;;0.60;;
60468;SDS011;46316;47.582;10.238;2022-09-13T06:54:29;2.13;;;0.57;;
60468;SDS011;46316;47.582;10.238;2022-09-13T06:56:55;0.68;;;0.60;;
60468;SDS011;46316;47.582;10.238;2022-09-13T06:59:21;0.98;;;0.60;;
60468;SDS011;46316;47.582;10.238;2022-09-13T07:01:47;2.75;;;0.77;;
60468;SDS011;46316;47.582;10.238;2022-09-13T07:04:14;0.70;;;0.70;;
60468;SDS011;46316;47.582;10.238;2022-09-13T07:06:42;2.55;;;0.70;;
60468;SDS011;46316;47.582;10.238;2022-09-13T07:09:12;1.67;;;0.70;;
60468;SDS011;46316;47.582;10.238;2022-09-13T07:11:42;2.45;;;0.80;;
60468;SDS011;46316;47.582;10.238;2022-09-13T07:14:15;3.53;;;0.60;;
60468;SDS011;46316;47.582;10.238;2022-09-13T07:16:42;1.05;;;0.80;;
60468;SDS011;46316;47.582;10.238;2022-09-13T07:19:14;2.05;;;0.88;;
60468;SDS011;46316;47.582;10.238;2022-09-13T07:21:41;0.77;;;0.65;;
60468;SDS011;46316;47.582;10.238;2022-09-13T07:24:07;1.02;;;0.65;;
60468;SDS011;46316;47.582;10.238;2022-09-13T07:26:33;2.08;;;0.82;;
60468;SDS011;46316;47.582;10.238;2022-09-13T07:29:00;0.75;;;0.52;;
60468;SDS011;46316;47.582;10.238;2022-09-13T07:31:32;1.13;;;0.80;;
60468;SDS011;46316;47.582;10.238;2022-09-13T07:34:00;2.45;;;0.63;;
60468;SDS011;46316;47.582;10.238;2022-09-13T07:36:28;0.60;;;0.60;;
60468;SDS011;46316;47.582;10.238;2022-09-13T07:38:55;1.10;;;0.60;;
60468;SDS011;46316;47.582;10.238;2022-09-13T07:41:22;1.17;;;0.60;;
60468;SDS011;46316;47.582;10.238;2022-09-13T07:43:48;0.63;;;0.63;;
60468;SDS011;46316;47.582;10.238;2022-09-13T07:46:16;1.52;;;0.70;;
60468;SDS011;46316;47.582;10.238;2022-09-13T07:48:44;2.38;;;0.68;;
60468;SDS011;46316;47.582;10.238;2022-09-13T07:51:17;0.82;;;0.70;;
60468;SDS011;46316;47.582;10.238;2022-09-13T07:53:47;2.63;;;0.68;;
60468;SDS011;46316;47.582;10.238;2022-09-13T07:56:15;1.58;;;0.70;;
60468;SDS011;46316;47.582;10.238;2022-09-13T07:58:48;0.68;;;0.52;;
60468;SDS011;46316;47.582;10.238;2022-09-13T08:03:40;1.98;;;0.65;;
60468;SDS011;46316;47.582;10.238;2022-09-13T08:06:06;2.33;;;0.88;;
60468;SDS011;46316;47.582;10.238;2022-09-13T08:08:33;0.75;;;0.73;;
60468;SDS011;46316;47.582;10.238;2022-09-13T08:10:59;1.73;;;0.68;;
60468;SDS011;46316;47.582;10.238;2022-09-13T08:13:26;2.90;;;0.70;;
60468;SDS011;46316;47.582;10.238;2022-09-13T08:16:02;1.27;;;0.70;;
60468;SDS011;46316;47.582;10.238;2022-09-13T08:18:29;2.00;;;0.77;;
60468;SDS011;46316;47.582;10.238;2022-09-13T08:20:56;0.98;;;0.70;;
60468;SDS011;46316;47.582;10.238;2022-09-13T08:23:23;3.45;;;0.63;;
60468;SDS011;46316;47.582;10.238;2022-09-13T08:25:49;1.33;;;0.77;;
60468;SDS011;46316;47.582;10.238;2022-09-13T08:28:16;2.08;;;0.50;;
60468;SDS011;46316;47.582;10.238;2022-09-13T08:30:45;1.98;;;0.38;;
60468;SDS011;46316;47.582;10.238;2022-09-13T08:33:12;1.38;;;0.80;;
60468;SDS011;46316;47.582;10.238;2022-09-13T08:35:39;1.33;;;0.60;;
60468;SDS011;46316;47.582;10.238;2022-09-13T08:38:05;2.22;;;0.90;;
60468;SDS011;46316;47.582;10.238;2022-09-13T08:40:41;1.52;;;0.57;;
60468;SDS011;46316;47.582;10.238;2022-09-13T08:43:21;0.73;;;0.70;;
60468;SDS011;46316;47.582;10.238;2022-09-13T08:46:01;1.23;;;0.68;;
60468;SDS011;46316;47.582;10.238;2022-09-13T08:48:35;0.70;;;0.70;;
60468;SDS011;46316;47.582;10.238;2022-09-13T08:51:05;2.85;;;0.60;;
60468;SDS011;46316;47.582;10.238;2022-09-13T08:53:48;1.27;;;0.82;;
60468;SDS011;46316;47.582;10.238;2022-09-13T08:56:19;1.30;;;0.80;;
60468;SDS011;46316;47.582;10.238;2022-09-13T09:01:49;1.00;;;0.57;;
60468;SDS011;46316;47.582;10.238;2022-09-13T09:04:49;3.80;;;0.88;;
60468;SDS011;46316;47.582;10.238;2022-09-13T09:07:30;1.33;;;0.80;;
60468;SDS011;46316;47.582;10.238;2022-09-13T09:10:05;3.20;;;0.63;;
60468;SDS011;46316;47.582;10.238;2022-09-13T09:13:13;2.05;;;0.70;;
60468;SDS011;46316;47.582;10.238;2022-09-13T09:15:39;2.33;;;0.75;;
60468;SDS011;46316;47.582;10.238;2022-09-13T09:18:23;1.27;;;0.80;;
60468;SDS011;46316;47.582;10.238;2022-09-13T09:20:54;0.68;;;0.68;;
60468;SDS011;46316;47.582;10.238;2022-09-13T09:23:22;0.70;;;0.57;;
60468;SDS011;46316;47.582;10.238;2022-09-13T09:25:55;2.00;;;0.77;;
60468;SDS011;46316;47.582;10.238;2022-09-13T09:28:24;0.70;;;0.50;;
60468;SDS011;46316;47.582;10.238;2022-09-13T09:36:53;2.45;;;0.90;;
60468;SDS011;46316;47.582;10.238;2022-09-13T09:39:32;1.20;;;1.10;;
60468;SDS011;46316;47.582;10.238;2022-09-13T09:42:03;1.98;;;0.98;;
60468;SDS011;46316;47.582;10.238;2022-09-13T09:44:34;1.38;;;1.10;;
60468;SDS011;46316;47.582;10.238;2022-09-13T09:49:39;1.23;;;0.88;;
60468;SDS011;46316;47.582;10.238;2022-09-13T09:52:35;1.75;;;0.90;;
60468;SDS011;46316;47.582;10.238;2022-09-13T09:57:56;1.65;;;0.68;;
60468;SDS011;46316;47.582;10.238;2022-09-13T10:00:28;0.50;;;0.50;;
60468;SDS011;46316;47.582;10.238;2022-09-13T10:03:13;0.93;;;0.60;;
60468;SDS011;46316;47.582;10.238;2022-09-13T10:05:42;1.55;;;0.50;;
60468;SDS011;46316;47.582;10.238;2022-09-13T10:08:22;0.70;;;0.70;;
60468;SDS011;46316;47.582;10.238;2022-09-13T10:10:57;1.30;;;0.60;;
60468;SDS011;46316;47.582;10.238;2022-09-13T10:13:24;0.90;;;0.57;;
60468;SDS011;46316;47.582;10.238;2022-09-13T10:16:04;0.63;;;0.30;;
60468;SDS011;46316;47.582;10.238;2022-09-13T10:18:34;0.43;;;0.38;;
60468;SDS011;46316;47.582;10.238;2022-09-13T10:21:05;1.90;;;0.50;;
60468;SDS011;46316;47.582;10.238;2022-09-13T10:23:42;1.25;;;0.70;;
60468;SDS011;46316;47.582;10.238;2022-09-13T10:26:09;3.25;;;0.88;;
60468;SDS011;46316;47.582;10.238;2022-09-13T10:31:16;1.90;;;0.60;;
60468;SDS011;46316;47.582;10.238;2022-09-13T10:33:51;0.30;;;0.30;;
60468;SDS011;46316;47.582;10.238;2022-09-13T10:36:34;0.57;;;0.50;;
60468;SDS011;46316;47.582;10.238;2022-09-13T10:39:02;0.30;;;0.30;;
60468;SDS011;46316;47.582;10.238;2022-09-13T10:41:38;0.70;;;0.50;;
60468;SDS011;46316;47.582;10.238;2022-09-13T10:46:58;0.45;;;0.30;;
60468;SDS011;46316;47.582;10.238;2022-09-13T10:49:34;0.80;;;0.50;;
60468;SDS011;46316;47.582;10.238;2022-09-13T10:54:49;1.65;;;0.50;;
60468;SDS011;46316;47.582;10.238;2022-09-13T10:57:48;0.95;;;0.30;;
60468;SDS011;46316;47.582;10.238;2022-09-13T11:00:08;0.40;;;0.35;;
60468;SDS011;46316;47.582;10.238;2022-09-13T11:11:22;2.10;;;0.60;;
60468;SDS011;46316;47.582;10.238;2022-09-13T11:16:56;2.08;;;0.55;;
60468;SDS011;46316;47.582;10.238;2022-09-13T11:30:27;3.30;;;0.65;;
60468;SDS011;46316;47.582;10.238;2022-09-13T11:33:03;2.47;;;0.60;;
60468;SDS011;46316;47.582;10.238;2022-09-13T11:38:40;2.33;;;0.55;;
60468;SDS011;46316;47.582;10.238;2022-09-13T11:41:18;0.55;;;0.38;;
60468;SDS011;46316;47.582;10.238;2022-09-13T11:51:53;0.32;;;0.32;;
60468;SDS011;46316;47.582;10.238;2022-09-13T11:57:21;2.42;;;0.40;;
60468;SDS011;46316;47.582;10.238;2022-09-13T12:00:02;0.55;;;0.30;;
60468;SDS011;46316;47.582;10.238;2022-09-13T12:02:41;0.70;;;0.50;;
60468;SDS011;46316;47.582;10.238;2022-09-13T12:05:14;1.48;;;0.25;;
60468;SDS011;46316;47.582;10.238;2022-09-13T12:12:41;0.38;;;0.35;;
60468;SDS011;46316;47.582;10.238;2022-09-13T12:17:44;0.77;;;0.60;;
60468;SDS011;46316;47.582;10.238;2022-09-13T12:20:29;2.70;;;0.40;;
60468;SDS011;46316;47.582;10.238;2022-09-13T12:23:01;0.45;;;0.45;;
60468;SDS011;46316;47.582;10.238;2022-09-13T12:28:56;0.40;;;0.40;;
60468;SDS011;46316;47.582;10.238;2022-09-13T12:45:46;0.63;;;0.40;;
60468;SDS011;46316;47.582;10.238;2022-09-13T12:56:04;0.47;;;0.47;;
60468;SDS011;46316;47.582;10.238;2022-09-13T13:01:55;0.30;;;0.30;;
60468;SDS011;46316;47.582;10.238;2022-09-13T13:04:43;0.30;;;0.30;;
60468;SDS011;46316;47.582;10.238;2022-09-13T13:07:19;1.13;;;0.38;;
60468;SDS011;46316;47.582;10.238;2022-09-13T13:09:47;2.63;;;0.55;;
60468;SDS011;46316;47.582;10.238;2022-09-13T13:12:25;1.98;;;0.50;;
60468;SDS011;46316;47.582;10.238;2022-09-13T13:14:55;2.55;;;0.50;;
60468;SDS011;46316;47.582;10.238;2022-09-13T13:27:28;0.28;;;0.28;;
60468;SDS011;46316;47.582;10.238;2022-09-13T13:35:43;1.13;;;0.50;;
60468;SDS011;46316;47.582;10.238;2022-09-13T13:53:13;1.88;;;0.50;;
60468;SDS011;46316;47.582;10.238;2022-09-13T13:56:06;2.30;;;0.52;;
60468;SDS011;46316;47.582;10.238;2022-09-13T13:58:50;1.13;;;0.40;;
60468;SDS011;46316;47.582;10.238;2022-09-13T14:01:43;5.20;;;0.70;;
60468;SDS011;46316;47.582;10.238;2022-09-13T14:07:10;2.25;;;0.40;;
60468;SDS011;46316;47.582;10.238;2022-09-13T14:13:28;1.30;;;0.50;;
60468;SDS011;46316;47.582;10.238;2022-09-13T14:16:31;0.30;;;0.30;;
60468;SDS011;46316;47.582;10.238;2022-09-13T14:22:43;0.43;;;0.43;;
60468;SDS011;46316;47.582;10.238;2022-09-13T14:27:56;0.95;;;0.20;;
60468;SDS011;46316;47.582;10.238;2022-09-13T14:30:30;0.57;;;0.55;;
60468;SDS011;46316;47.582;10.238;2022-09-13T14:32:59;1.27;;;0.47;;
60468;SDS011;46316;47.582;10.238;2022-09-13T14:38:10;3.15;;;0.65;;
60468;SDS011;46316;47.582;10.238;2022-09-13T14:40:47;2.63;;;0.63;;
60468;SDS011;46316;47.582;10.238;2022-09-13T14:47:14;1.30;;;0.30;;
60468;SDS011;46316;47.582;10.238;2022-09-13T14:49:56;0.65;;;0.65;;
60468;SDS011;46316;47.582;10.238;2022-09-13T14:56:43;3.75;;;0.70;;
60468;SDS011;46316;47.582;10.238;2022-09-13T14:59:46;1.63;;;0.50;;
60468;SDS011;46316;47.582;10.238;2022-09-13T15:02:30;2.72;;;0.57;;
60468;SDS011;46316;47.582;10.238;2022-09-13T15:05:00;0.40;;;0.40;;
60468;SDS011;46316;47.582;10.238;2022-09-13T15:07:33;1.88;;;0.50;;
60468;SDS011;46316;47.582;10.238;2022-09-13T15:10:08;2.03;;;0.52;;
60468;SDS011;46316;47.582;10.238;2022-09-13T15:18:00;3.25;;;0.90;;
60468;SDS011;46316;47.582;10.238;2022-09-13T15:20:27;4.00;;;0.90;;
60468;SDS011;46316;47.582;10.238;2022-09-13T15:23:14;1.52;;;0.63;;
60468;SDS011;46316;47.582;10.238;2022-09-13T15:25:53;1.42;;;0.50;;
60468;SDS011;46316;47.582;10.238;2022-09-13T15:31:07;0.90;;;0.40;;
60468;SDS011;46316;47.582;10.238;2022-09-13T15:33:35;1.67;;;0.60;;
60468;SDS011;46316;47.582;10.238;2022-09-13T15:38:55;1.35;;;0.75;;
60468;SDS011;46316;47.582;10.238;2022-09-13T15:41:50;2.70;;;0.60;;
60468;SDS011;46316;47.582;10.238;2022-09-13T15:44:20;1.17;;;0.65;;
60468;SDS011;46316;47.582;10.238;2022-09-13T15:46:48;1.15;;;0.75;;
60468;SDS011;46316;47.582;10.238;2022-09-13T15:49:17;0.50;;;0.50;;
60468;SDS011;46316;47.582;10.238;2022-09-13T15:51:44;1.63;;;0.63;;
60468;SDS011;46316;47.582;10.238;2022-09-13T15:54:11;1.23;;;0.70;;
60468;SDS011;46316;47.582;10.238;2022-09-13T15:56:39;0.55;;;0.55;;
60468;SDS011;46316;47.582;10.238;2022-09-13T15:59:07;1.23;;;0.60;;
60468;SDS011;46316;47.582;10.238;2022-09-13T16:01:37;0.80;;;0.50;;
60468;SDS011;46316;47.582;10.238;2022-09-13T16:04:02;1.35;;;0.60;;
60468;SDS011;46316;47.582;10.238;2022-09-13T16:06:29;3.67;;;0.77;;
60468;SDS011;46316;47.582;10.238;2022-09-13T16:08:54;0.68;;;0.38;;
60468;SDS011;46316;47.582;10.238;2022-09-13T16:11:20;2.55;;;0.77;;
60468;SDS011;46316;47.582;10.238;2022-09-13T16:13:45;1.42;;;0.93;;
60468;SDS011;46316;47.582;10.238;2022-09-13T16:16:12;1.70;;;1.13;;
60468;SDS011;46316;47.582;10.238;2022-09-13T16:18:38;1.88;;;0.80;;
60468;SDS011;46316;47.582;10.238;2022-09-13T16:21:04;1.10;;;0.88;;
60468;SDS011;46316;47.582;10.238;2022-09-13T16:23:30;0.70;;;0.70;;
60468;SDS011;46316;47.582;10.238;2022-09-13T16:25:55;1.00;;;0.52;;
60468;SDS011;46316;47.582;10.238;2022-09-13T16:28:25;0.80;;;0.70;;
60468;SDS011;46316;47.582;10.238;2022-09-13T16:30:51;0.73;;;0.50;;
60468;SDS011;46316;47.582;10.238;2022-09-13T16:33:17;3.08;;;0.65;;
60468;SDS011;46316;47.582;10.238;2022-09-13T16:35:44;0.88;;;0.80;;
60468;SDS011;46316;47.582;10.238;2022-09-13T16:38:10;0.73;;;0.60;;
60468;SDS011;46316;47.582;10.238;2022-09-13T16:40:39;0.93;;;0.80;;
60468;SDS011;46316;47.582;10.238;2022-09-13T16:45:32;0.65;;;0.52;;
60468;SDS011;46316;47.582;10.238;2022-09-13T16:47:58;1.00;;;0.60;;
60468;SDS011;46316;47.582;10.238;2022-09-13T16:50:24;0.57;;;0.57;;
60468;SDS011;46316;47.582;10.238;2022-09-13T16:52:50;1.85;;;0.70;;
60468;SDS011;46316;47.582;10.238;2022-09-13T16:55:15;0.70;;;0.60;;
60468;SDS011;46316;47.582;10.238;2022-09-13T16:57:41;1.02;;;0.90;;
60468;SDS011;46316;47.582;10.238;2022-09-13T17:00:08;2.50;;;0.82;;
60468;SDS011;46316;47.582;10.238;2022-09-13T17:02:35;1.23;;;1.00;;
60468;SDS011;46316;47.582;10.238;2022-09-13T17:05:01;0.90;;;0.55;;
60468;SDS011;46316;47.582;10.238;2022-09-13T17:07:29;2.97;;;0.95;;
60468;SDS011;46316;47.582;10.238;2022-09-13T17:09:55;1.30;;;0.63;;
60468;SDS011;46316;47.582;10.238;2022-09-13T17:12:22;3.13;;;0.60;;
60468;SDS011;46316;47.582;10.238;2022-09-13T17:14:47;2.00;;;0.90;;
60468;SDS011;46316;47.582;10.238;2022-09-13T17:17:15;1.10;;;0.85;;
60468;SDS011;46316;47.582;10.238;2022-09-13T17:19:41;2.60;;;0.75;;
60468;SDS011;46316;47.582;10.238;2022-09-13T17:22:08;1.15;;;0.90;;
60468;SDS011;46316;47.582;10.238;2022-09-13T17:24:35;0.90;;;0.70;;
60468;SDS011;46316;47.582;10.238;2022-09-13T17:27:01;2.65;;;0.90;;
60468;SDS011;46316;47.582;10.238;2022-09-13T17:29:30;2.83;;;0.63;;
60468;SDS011;46316;47.582;10.238;2022-09-13T17:31:58;2.38;;;0.60;;
60468;SDS011;46316;47.582;10.238;2022-09-13T17:34:25;1.65;;;0.80;;
60468;SDS011;46316;47.582;10.238;2022-09-13T17:36:52;0.93;;;0.82;;
60468;SDS011;46316;47.582;10.238;2022-09-13T17:39:18;1.00;;;0.90;;
60468;SDS011;46316;47.582;10.238;2022-09-13T17:41:44;1.13;;;0.77;;
60468;SDS011;46316;47.582;10.238;2022-09-13T17:44:10;4.35;;;1.00;;
60468;SDS011;46316;47.582;10.238;2022-09-13T17:46:36;2.60;;;0.75;;
60468;SDS011;46316;47.582;10.238;2022-09-13T17:49:02;2.25;;;0.80;;
60468;SDS011;46316;47.582;10.238;2022-09-13T17:51:29;2.47;;;0.90;;
60468;SDS011;46316;47.582;10.238;2022-09-13T17:53:56;2.35;;;1.02;;
60468;SDS011;46316;47.582;10.238;2022-09-13T17:56:28;1.13;;;1.00;;
60468;SDS011;46316;47.582;10.238;2022-09-13T17:58:55;1.80;;;1.00;;
60468;SDS011;46316;47.582;10.238;2022-09-13T18:01:27;0.90;;;0.88;;
60468;SDS011;46316;47.582;10.238;2022-09-13T18:03:53;1.75;;;0.57;;
60468;SDS011;46316;47.582;10.238;2022-09-13T18:06:19;1.23;;;1.00;;
60468;SDS011;46316;47.582;10.238;2022-09-13T18:08:45;2.03;;;0.80;;
60468;SDS011;46316;47.582;10.238;2022-09-13T18:11:12;4.18;;;1.65;;
60468;SDS011;46316;47.582;10.238;2022-09-13T18:13:40;3.22;;;0.70;;
60468;SDS011;46316;47.582;10.238;2022-09-13T18:16:12;1.83;;;0.88;;
60468;SDS011;46316;47.582;10.238;2022-09-13T18:18:40;1.27;;;0.88;;
60468;SDS011;46316;47.582;10.238;2022-09-13T18:21:06;1.08;;;0.98;;
60468;SDS011;46316;47.582;10.238;2022-09-13T18:23:32;0.95;;;0.65;;
60468;SDS011;46316;47.582;10.238;2022-09-13T18:26:06;1.40;;;0.90;;
60468;SDS011;46316;47.582;10.238;2022-09-13T18:28:33;2.33;;;0.90;;
60468;SDS011;46316;47.582;10.238;2022-09-13T18:31:00;1.27;;;0.70;;
60468;SDS011;46316;47.582;10.238;2022-09-13T18:33:29;1.00;;;0.90;;
60468;SDS011;46316;47.582;10.238;2022-09-13T18:35:59;0.98;;;0.88;;
60468;SDS011;46316;47.582;10.238;2022-09-13T18:38:36;3.42;;;1.17;;
60468;SDS011;46316;47.582;10.238;2022-09-13T18:41:07;1.20;;;1.10;;
60468;SDS011;46316;47.582;10.238;2022-09-13T18:43:41;1.42;;;1.30;;
60468;SDS011;46316;47.582;10.238;2022-09-13T18:46:09;1.95;;;1.10;;